Time;durP1;ratioP1;P1;durP2;ratioP2;P2;SDS_P1;SDS_P2;PMS_P1;PMS_P2;Temp;Humidity;BMP_temperature;BMP_pressure;BME280_temperature;BME280_humidity;BME280_pressure;Samples;Min_cycle;Max_cycle;Signal;HPM_P1;HPM_P2
2021/04/14 00:00:22;;;;;;;0.60;0.60;;;1.10;99.90;;;;;;4950999;28;551055;-86
2021/04/14 00:02:49;;;;;;;0.60;0.60;;;1.00;99.90;;;;;;4970410;28;20203;-87
2021/04/14 00:05:18;;;;;;;0.60;0.60;;;1.00;99.90;;;;;;4970592;28;20223;-86
2021/04/14 00:07:44;;;;;;;0.60;0.60;;;1.00;99.90;;;;;;4970466;28;20215;-87
2021/04/14 00:10:12;;;;;;;0.60;0.60;;;0.90;99.90;;;;;;4971381;28;20207;-86
2021/04/14 00:12:38;;;;;;;0.60;0.60;;;1.00;99.90;;;;;;4973830;28;20203;-86
2021/04/14 00:15:08;;;;;;;0.60;0.60;;;1.00;99.90;;;;;;4974323;28;20199;-86
2021/04/14 00:17:34;;;;;;;0.60;0.60;;;1.00;99.90;;;;;;4974026;28;20210;-86
2021/04/14 00:20:00;;;;;;;0.60;0.60;;;1.00;99.90;;;;;;4973947;28;20223;-86
2021/04/14 00:22:27;;;;;;;0.60;0.60;;;1.00;99.90;;;;;;4974344;28;20206;-85
2021/04/14 00:24:53;;;;;;;0.57;0.57;;;0.90;99.90;;;;;;4974437;28;20689;-86
2021/04/14 00:27:19;;;;;;;0.60;0.60;;;1.00;99.90;;;;;;4974082;28;20219;-86
2021/04/14 00:29:45;;;;;;;0.60;0.60;;;1.00;99.90;;;;;;4973618;28;20195;-86
2021/04/14 00:32:12;;;;;;;0.50;0.50;;;1.00;99.90;;;;;;4973757;28;20198;-86
2021/04/14 00:34:38;;;;;;;0.60;0.60;;;1.00;99.90;;;;;;4973731;28;20585;-86
2021/04/14 00:37:04;;;;;;;0.60;0.60;;;1.00;99.90;;;;;;4974286;28;20217;-86
2021/04/14 00:39:31;;;;;;;0.60;0.60;;;0.90;99.90;;;;;;4973465;28;20613;-86
2021/04/14 00:41:57;;;;;;;0.55;0.55;;;0.90;99.90;;;;;;4973929;28;20214;-86
2021/04/14 00:44:23;;;;;;;0.50;0.50;;;0.90;99.90;;;;;;4973739;28;20207;-86
2021/04/14 00:46:50;;;;;;;0.50;0.50;;;0.90;99.90;;;;;;4973098;28;20850;-85
2021/04/14 00:49:16;;;;;;;0.60;0.60;;;0.90;99.90;;;;;;4973039;28;20650;-86
2021/04/14 00:51:43;;;;;;;0.60;0.60;;;0.90;99.90;;;;;;4973147;28;20215;-85
2021/04/14 00:54:10;;;;;;;0.50;0.50;;;0.90;99.90;;;;;;4973254;28;20199;-86
2021/04/14 00:56:37;;;;;;;0.60;0.60;;;0.90;99.90;;;;;;4972796;28;20693;-86
2021/04/14 00:59:03;;;;;;;0.60;0.60;;;0.90;99.90;;;;;;4972819;28;20235;-87
2021/04/14 01:01:30;;;;;;;0.60;0.60;;;0.80;99.90;;;;;;4973029;28;20214;-87
2021/04/14 01:03:57;;;;;;;0.55;0.55;;;0.80;99.90;;;;;;4973548;28;20677;-87
2021/04/14 01:06:25;;;;;;;0.50;0.50;;;0.90;99.90;;;;;;4973167;28;20657;-86
2021/04/14 01:08:52;;;;;;;0.60;0.60;;;0.80;99.90;;;;;;4973042;28;20215;-86
2021/04/14 01:11:20;;;;;;;0.55;0.55;;;0.80;99.90;;;;;;4973030;28;20226;-86
2021/04/14 01:13:48;;;;;;;0.50;0.50;;;0.80;99.90;;;;;;4972703;28;20434;-86
2021/04/14 01:16:15;;;;;;;0.60;0.60;;;0.80;99.90;;;;;;4972700;28;20234;-86
2021/04/14 01:18:42;;;;;;;0.50;0.50;;;0.80;99.90;;;;;;4972856;28;20216;-86
2021/04/14 01:21:10;;;;;;;0.60;0.60;;;0.80;99.90;;;;;;4972995;28;20211;-86
2021/04/14 01:23:38;;;;;;;0.60;0.60;;;0.80;99.90;;;;;;4971900;28;20221;-86
2021/04/14 01:26:04;;;;;;;0.60;0.60;;;0.70;99.90;;;;;;4972357;28;20215;-86
2021/04/14 01:28:34;;;;;;;0.60;0.60;;;0.60;99.90;;;;;;4972433;28;20689;-86
2021/04/14 01:31:01;;;;;;;0.60;0.60;;;0.50;99.90;;;;;;4972311;28;20211;-86
2021/04/14 01:33:31;;;;;;;0.52;0.52;;;0.60;99.90;;;;;;4972563;28;20222;-87
2021/04/14 01:35:58;;;;;;;0.60;0.60;;;0.60;99.90;;;;;;4972582;28;20203;-87
2021/04/14 01:38:24;;;;;;;0.60;0.60;;;0.50;99.90;;;;;;4972820;28;20594;-87
2021/04/14 01:40:51;;;;;;;0.60;0.60;;;0.50;99.90;;;;;;4972425;28;20632;-87
2021/04/14 01:43:18;;;;;;;0.50;0.50;;;0.50;99.90;;;;;;4972358;28;20214;-88
2021/04/14 01:45:46;;;;;;;0.60;0.60;;;0.60;99.90;;;;;;4972241;28;20229;-87
2021/04/14 01:48:14;;;;;;;0.60;0.60;;;0.60;99.90;;;;;;4972423;28;20207;-87
2021/04/14 01:50:40;;;;;;;0.60;0.60;;;0.60;99.90;;;;;;4972579;28;20199;-87
2021/04/14 01:53:09;;;;;;;0.60;0.60;;;0.50;99.90;;;;;;4972364;28;20199;-87
2021/04/14 01:55:36;;;;;;;0.60;0.60;;;0.60;99.90;;;;;;4972573;28;20549;-87
2021/04/14 01:58:04;;;;;;;0.57;0.57;;;0.50;99.90;;;;;;4972654;28;20211;-88
2021/04/14 02:00:33;;;;;;;0.60;0.60;;;0.60;99.90;;;;;;4971986;28;20210;-87
2021/04/14 02:03:00;;;;;;;0.60;0.60;;;0.60;99.90;;;;;;4972027;28;20207;-86
2021/04/14 02:05:31;;;;;;;0.60;0.60;;;0.60;99.90;;;;;;4972009;28;20215;-86
2021/04/14 02:07:59;;;;;;;0.50;0.50;;;0.60;99.90;;;;;;4971937;28;20230;-87
2021/04/14 02:10:27;;;;;;;0.55;0.55;;;0.60;99.90;;;;;;4972161;28;20210;-86
2021/04/14 02:12:55;;;;;;;0.50;0.50;;;0.60;99.90;;;;;;4971965;28;20670;-86
2021/04/14 02:15:25;;;;;;;0.57;0.57;;;0.60;99.90;;;;;;4973723;28;20215;-88
2021/04/14 02:17:52;;;;;;;0.50;0.50;;;0.60;99.90;;;;;;4973026;28;20234;-88
2021/04/14 02:20:18;;;;;;;0.60;0.60;;;0.60;99.90;;;;;;4972542;28;20223;-89
2021/04/14 02:22:44;;;;;;;0.50;0.50;;;0.60;99.90;;;;;;4972230;28;20203;-89
2021/04/14 02:25:12;;;;;;;0.60;0.60;;;0.70;99.90;;;;;;4972921;28;20199;-89
2021/04/14 02:27:39;;;;;;;0.50;0.50;;;0.50;99.90;;;;;;4973078;28;20736;-89
2021/04/14 02:30:07;;;;;;;0.60;0.60;;;0.50;99.90;;;;;;4972583;28;20262;-89
2021/04/14 02:32:34;;;;;;;0.60;0.60;;;0.50;99.90;;;;;;4972694;28;20211;-89
2021/04/14 02:35:01;;;;;;;0.60;0.60;;;0.50;99.90;;;;;;4972430;28;20258;-89
2021/04/14 02:37:27;;;;;;;0.50;0.50;;;0.40;99.90;;;;;;4972264;28;20199;-88
2021/04/14 02:39:54;;;;;;;0.60;0.60;;;0.60;99.90;;;;;;4972090;28;20670;-89
2021/04/14 02:42:20;;;;;;;0.50;0.50;;;0.50;99.90;;;;;;4972527;28;20211;-89
2021/04/14 02:44:48;;;;;;;0.50;0.50;;;0.40;99.90;;;;;;4971701;28;20211;-89
2021/04/14 02:47:14;;;;;;;0.60;0.60;;;0.30;99.90;;;;;;4971850;28;20263;-89
2021/04/14 02:49:41;;;;;;;0.60;0.60;;;0.20;99.90;;;;;;4971896;28;20737;-89
2021/04/14 02:52:07;;;;;;;0.60;0.60;;;0.10;99.90;;;;;;4972100;28;20227;-89
2021/04/14 02:54:34;;;;;;;0.60;0.60;;;0.50;99.90;;;;;;4971692;28;20250;-88
2021/04/14 02:57:00;;;;;;;0.60;0.60;;;0.00;99.90;;;;;;4971583;28;20245;-89
2021/04/14 02:59:26;;;;;;;0.60;0.60;;;-0.10;99.90;;;;;;4971802;28;20313;-88
2021/04/14 03:01:52;;;;;;;0.60;0.60;;;-0.20;99.90;;;;;;4971794;28;20215;-88
2021/04/14 03:04:19;;;;;;;0.60;0.60;;;-0.30;99.90;;;;;;4971469;28;20681;-88
2021/04/14 03:06:46;;;;;;;0.60;0.60;;;-0.20;99.90;;;;;;4971243;28;20230;-89
2021/04/14 03:09:12;;;;;;;0.60;0.60;;;-0.20;99.90;;;;;;4972006;28;20211;-88
2021/04/14 03:11:38;;;;;;;0.60;0.60;;;-0.40;99.90;;;;;;4971828;28;20545;-88
2021/04/14 03:14:04;;;;;;;0.60;0.60;;;-0.40;99.90;;;;;;4971277;28;20234;-88
2021/04/14 03:16:31;;;;;;;0.60;0.60;;;-0.40;99.90;;;;;;4971828;28;20191;-89
2021/04/14 03:18:57;;;;;;;0.60;0.60;;;-0.40;99.90;;;;;;4971987;28;20215;-89
2021/04/14 03:21:24;;;;;;;0.60;0.60;;;-0.30;99.90;;;;;;4972396;28;20658;-90
2021/04/14 03:23:51;;;;;;;0.60;0.60;;;-0.40;99.90;;;;;;4971966;28;20219;-89
2021/04/14 03:26:17;;;;;;;0.60;0.60;;;-0.40;99.90;;;;;;4971805;28;20235;-90
2021/04/14 03:28:44;;;;;;;0.60;0.60;;;-0.50;99.90;;;;;;4971838;28;20210;-89
2021/04/14 03:31:10;;;;;;;0.50;0.50;;;-0.40;99.90;;;;;;4972010;28;20215;-88
2021/04/14 03:33:37;;;;;;;0.60;0.60;;;-0.30;99.90;;;;;;4972881;28;20346;-88
2021/04/14 03:36:04;;;;;;;0.57;0.57;;;-0.20;99.90;;;;;;4975485;28;20207;-88
2021/04/14 03:38:30;;;;;;;0.60;0.60;;;-0.20;99.90;;;;;;4980779;28;20670;-87
2021/04/14 03:40:58;;;;;;;0.60;0.60;;;-0.30;99.90;;;;;;4985182;28;20219;-87
2021/04/14 03:43:25;;;;;;;0.60;0.60;;;-0.40;99.90;;;;;;4989023;28;20227;-88
2021/04/14 03:45:57;;;;;;;0.60;0.60;;;-0.40;99.90;;;;;;4983472;28;20693;-88
2021/04/14 03:48:23;;;;;;;0.52;0.52;;;-0.40;99.90;;;;;;4980339;28;20219;-89
2021/04/14 03:50:50;;;;;;;0.60;0.60;;;-0.40;99.90;;;;;;4980566;28;20234;-89
2021/04/14 03:53:23;;;;;;;0.60;0.60;;;-0.40;99.90;;;;;;4979602;28;20229;-89
2021/04/14 03:55:54;;;;;;;0.50;0.50;;;-0.40;99.90;;;;;;4978615;28;20220;-88
2021/04/14 03:58:21;;;;;;;0.60;0.60;;;-0.30;99.90;;;;;;4977277;28;20234;-88
2021/04/14 04:00:50;;;;;;;0.60;0.60;;;-0.30;99.90;;;;;;4978436;28;20207;-87
2021/04/14 04:03:17;;;;;;;0.50;0.50;;;-0.20;99.90;;;;;;4982279;28;20214;-89
2021/04/14 04:05:44;;;;;;;0.50;0.50;;;-0.20;99.90;;;;;;4979917;28;20568;-88
2021/04/14 04:08:11;;;;;;;0.60;0.60;;;-0.20;99.90;;;;;;4979174;28;20206;-88
2021/04/14 04:10:37;;;;;;;0.57;0.57;;;-0.20;99.90;;;;;;4978452;28;20218;-88
2021/04/14 04:13:03;;;;;;;0.60;0.60;;;-0.20;99.90;;;;;;4973549;28;20709;-89
2021/04/14 04:15:31;;;;;;;0.50;0.50;;;-0.20;99.90;;;;;;4974845;28;20215;-89
2021/04/14 04:17:57;;;;;;;0.57;0.57;;;-0.20;99.90;;;;;;4970190;28;20215;-87
2021/04/14 04:20:23;;;;;;;0.60;0.60;;;0.10;99.90;;;;;;4969796;28;20211;-88
2021/04/14 04:22:50;;;;;;;0.60;0.60;;;-0.20;99.90;;;;;;4973623;28;20203;-88
2021/04/14 04:25:16;;;;;;;0.60;0.60;;;-0.30;99.90;;;;;;4971517;28;20440;-89
2021/04/14 04:27:46;;;;;;;0.60;0.60;;;-0.30;99.90;;;;;;4973252;28;20689;-88
2021/04/14 04:30:14;;;;;;;0.60;0.60;;;-0.30;99.90;;;;;;4977527;28;20235;-87
2021/04/14 04:33:23;;;;;;;0.60;0.60;;;-0.40;99.90;;;;;;5291099;23;20239;-88
2021/04/14 04:36:24;;;;;;;0.55;0.55;;;1.90;99.90;;;;;;4903232;29;20194;-89
2021/04/14 04:42:48;;;;;;;0.60;0.60;;;0.10;99.90;;;;;;4911347;29;20313;-91
2021/04/14 04:45:41;;;;;;;;;;;;;;;;;;;;;
2021/04/14 04:51:49;;;;;;;0.50;0.50;;;-0.40;99.90;;;;;;4916199;29;20261;-89
2021/04/14 04:54:16;;;;;;;0.57;0.57;;;1.20;99.90;;;;;;4839103;29;20213;-89
2021/04/14 05:04:34;;;;;;;0.60;0.60;;;-0.10;99.90;;;;;;5011479;28;20245;-89
2021/04/14 05:07:02;;;;;;;0.60;0.60;;;-0.30;99.90;;;;;;5015324;28;20302;-90
2021/04/14 05:09:28;;;;;;;0.50;0.50;;;-1.00;99.90;;;;;;5005048;28;20581;-89
2021/04/14 05:11:57;;;;;;;0.50;0.50;;;-0.20;99.90;;;;;;4998024;28;20206;-90
2021/04/14 05:14:23;;;;;;;0.50;0.50;;;-1.20;99.90;;;;;;4998177;28;20199;-89
2021/04/14 05:16:59;;;;;;;0.60;0.60;;;-0.30;99.90;;;;;;4993831;28;20194;-88
2021/04/14 05:33:49;;;;;;;;;;;;;;;;;;;;;
2021/04/14 05:36:56;;;;;;;;;;;;;;;;;;;;;
2021/04/14 05:40:41;;;;;;;0.60;0.60;;;3.90;99.90;;;;;;4784463;30;20219;-90
2021/04/14 05:43:43;;;;;;;;;;;;;;;;;;;;;
2021/04/14 05:46:24;;;;;;;0.60;0.60;;;4.40;99.90;;;;;;4796740;29;20245;-87
2021/04/14 05:48:55;;;;;;;0.60;0.60;;;5.50;99.90;;;;;;4802737;29;20757;-87
2021/04/14 05:51:24;;;;;;;0.60;0.60;;;6.00;99.90;;;;;;4864841;29;20610;-88
2021/04/14 05:53:53;;;;;;;0.60;0.60;;;6.60;99.90;;;;;;4946188;28;20294;-88
2021/04/14 05:56:31;;;;;;;;;;;;;;;;;;;;;
2021/04/14 05:59:22;;;;;;;;;;;;;;;;;;;;;
2021/04/14 06:01:49;;;;;;;0.60;0.60;;;6.70;99.90;;;;;;4992627;28;20212;-88
2021/04/14 06:04:28;;;;;;;0.60;0.60;;;6.40;99.90;;;;;;4992330;28;20272;-88
2021/04/14 06:07:13;;;;;;;0.60;0.60;;;5.00;99.90;;;;;;4992683;28;20233;-87
2021/04/14 06:09:52;;;;;;;;;;;;;;;;;;;;;
2021/04/14 06:12:46;;;;;;;;;;;;;;;;;;;;;
2021/04/14 06:15:45;;;;;;;;;;;;;;;;;;;;;
2021/04/14 06:18:26;;;;;;;0.60;0.60;;;3.20;99.90;;;;;;4944592;28;20715;-88
2021/04/14 06:21:02;;;;;;;0.50;0.50;;;1.30;99.90;;;;;;4951201;28;20703;-87
2021/04/14 06:24:05;;;;;;;;;;;;;;;;;;;;;
2021/04/14 06:26:43;;;;;;;0.60;0.60;;;3.70;99.90;;;;;;4906382;29;20615;-87
2021/04/14 06:29:52;;;;;;;0.60;0.60;;;3.10;99.90;;;;;;4951207;28;20215;-87
2021/04/14 06:32:53;;;;;;;0.50;0.50;;;3.20;99.90;;;;;;4853238;29;20298;-87
2021/04/14 06:36:02;;;;;;;;;;;;;;;;;;;;;
2021/04/14 06:38:45;;;;;;;0.50;0.50;;;2.20;99.90;;;;;;4950553;28;20214;-87
2021/04/14 06:47:55;;;;;;;;;;;;;;;;;;;;;
2021/04/14 06:50:56;;;;;;;0.50;0.50;;;4.90;99.90;;;;;;4974394;28;20216;-87
2021/04/14 07:06:25;;;;;;;;;;;;;;;;;;;;;
2021/04/14 07:09:03;;;;;;;0.60;0.60;;;4.00;99.90;;;;;;4851917;29;20212;-86
2021/04/14 07:11:30;;;;;;;0.60;0.60;;;4.00;99.90;;;;;;4978755;28;20213;-82
2021/04/14 07:13:57;;;;;;;0.60;0.60;;;4.20;99.90;;;;;;4991156;28;20207;-85
2021/04/14 07:16:37;;;;;;;0.60;0.60;;;4.30;99.90;;;;;;4982139;28;20242;-85
2021/04/14 07:19:15;;;;;;;0.60;0.60;;;4.30;99.90;;;;;;4971942;28;20531;-85
2021/04/14 07:21:48;;;;;;;0.60;0.60;;;4.20;99.90;;;;;;4973732;28;20213;-85
2021/04/14 07:27:42;;;;;;;0.60;0.60;;;4.80;99.90;;;;;;4961233;28;20227;-85
2021/04/14 07:30:13;;;;;;;0.60;0.60;;;4.60;99.90;;;;;;4956797;28;20207;-84
2021/04/14 07:32:50;;;;;;;0.57;0.57;;;4.00;99.90;;;;;;4956374;28;20235;-85
2021/04/14 07:35:22;;;;;;;0.60;0.60;;;4.10;99.90;;;;;;4955723;28;20289;-84
2021/04/14 07:38:01;;;;;;;0.60;0.60;;;4.20;99.90;;;;;;4955845;28;20204;-84
2021/04/14 07:40:36;;;;;;;0.60;0.60;;;4.30;99.90;;;;;;4956266;28;20647;-86
2021/04/14 07:43:12;;;;;;;0.60;0.60;;;4.50;99.90;;;;;;4956243;28;20207;-83
2021/04/14 07:45:39;;;;;;;0.55;0.55;;;4.50;99.90;;;;;;4956893;28;20623;-87
2021/04/14 07:48:08;;;;;;;0.60;0.60;;;4.40;99.90;;;;;;4955147;28;20314;-85
2021/04/14 07:50:39;;;;;;;0.55;0.55;;;4.40;99.90;;;;;;4955783;28;20214;-86
2021/04/14 07:53:17;;;;;;;0.50;0.50;;;4.40;99.90;;;;;;4955824;28;20204;-87
2021/04/14 07:55:43;;;;;;;0.60;0.60;;;4.40;99.90;;;;;;4955865;28;20200;-86
2021/04/14 07:58:14;;;;;;;0.50;0.50;;;4.50;99.90;;;;;;4956433;28;20207;-87
2021/04/14 08:00:42;;;;;;;0.60;0.60;;;4.60;99.90;;;;;;4956005;28;20689;-86
2021/04/14 08:03:11;;;;;;;0.60;0.60;;;4.60;99.90;;;;;;4955689;28;20246;-86
2021/04/14 08:05:38;;;;;;;0.50;0.50;;;4.70;99.90;;;;;;4955661;28;20213;-86
2021/04/14 08:08:16;;;;;;;0.50;0.50;;;4.70;99.90;;;;;;4955674;28;20223;-86
2021/04/14 08:10:53;;;;;;;0.60;0.60;;;4.60;99.90;;;;;;4955938;28;20211;-86
2021/04/14 08:13:25;;;;;;;0.50;0.50;;;4.40;99.90;;;;;;4955531;28;20211;-86
2021/04/14 08:15:52;;;;;;;0.60;0.60;;;4.70;99.90;;;;;;4955522;28;20262;-86
2021/04/14 08:18:23;;;;;;;0.60;0.60;;;5.00;99.90;;;;;;4955539;28;20211;-86
2021/04/14 08:21:03;;;;;;;0.60;0.60;;;5.00;99.90;;;;;;4973158;28;20207;-87
2021/04/14 08:23:31;;;;;;;0.60;0.60;;;5.00;99.90;;;;;;4974869;28;20269;-87
2021/04/14 08:25:59;;;;;;;0.60;0.60;;;5.00;99.90;;;;;;4974825;28;20214;-85
2021/04/14 08:28:28;;;;;;;0.60;0.60;;;4.80;99.90;;;;;;4975106;28;20610;-86
2021/04/14 08:31:08;;;;;;;0.60;0.60;;;4.80;99.90;;;;;;4974632;28;20578;-84
2021/04/14 08:33:35;;;;;;;0.50;0.50;;;4.80;99.90;;;;;;4973799;28;20688;-84
2021/04/14 08:36:12;;;;;;;0.52;0.52;;;5.00;99.90;;;;;;4974504;28;20475;-84
2021/04/14 08:38:39;;;;;;;0.55;0.55;;;5.40;99.90;;;;;;4974536;28;20234;-84
2021/04/14 08:41:06;;;;;;;0.52;0.52;;;5.40;99.90;;;;;;4974296;28;20207;-85
2021/04/14 08:43:38;;;;;;;0.60;0.60;;;5.60;99.90;;;;;;4974505;28;20265;-84
2021/04/14 08:46:10;;;;;;;0.60;0.60;;;5.60;99.90;;;;;;4974478;28;20229;-84
2021/04/14 08:48:38;;;;;;;0.52;0.52;;;5.90;99.90;;;;;;4975392;28;20203;-84
2021/04/14 08:51:04;;;;;;;0.60;0.60;;;6.20;99.90;;;;;;4974722;28;20226;-84
2021/04/14 08:53:34;;;;;;;0.60;0.60;;;6.20;99.90;;;;;;4974407;28;20199;-84
2021/04/14 08:56:02;;;;;;;0.60;0.60;;;5.90;99.90;;;;;;4973888;28;20214;-84
2021/04/14 08:58:28;;;;;;;0.60;0.60;;;5.80;99.90;;;;;;4974390;28;20351;-88
2021/04/14 09:00:55;;;;;;;0.50;0.50;;;5.50;99.90;;;;;;4974186;28;20211;-87
2021/04/14 09:03:25;;;;;;;0.60;0.60;;;5.10;99.90;;;;;;4973908;28;20242;-87
2021/04/14 09:05:51;;;;;;;0.50;0.50;;;5.00;99.90;;;;;;4974349;28;20215;-87
2021/04/14 09:08:21;;;;;;;0.60;0.60;;;4.90;99.90;;;;;;4970766;28;20227;-87
2021/04/14 09:10:53;;;;;;;0.57;0.57;;;4.90;99.90;;;;;;4973145;28;20795;-86
2021/04/14 09:13:32;;;;;;;0.55;0.55;;;5.00;99.90;;;;;;4973602;28;20215;-88
2021/04/14 09:16:01;;;;;;;0.60;0.60;;;5.00;99.90;;;;;;4973048;28;20674;-86
2021/04/14 09:18:32;;;;;;;0.60;0.60;;;5.20;99.90;;;;;;4972640;28;20207;-86
2021/04/14 09:21:14;;;;;;;0.60;0.60;;;5.20;99.90;;;;;;4972479;28;20640;-86
2021/04/14 09:23:50;;;;;;;0.60;0.60;;;5.10;99.90;;;;;;4972684;28;20207;-87
2021/04/14 09:26:25;;;;;;;0.60;0.60;;;5.10;99.90;;;;;;4972675;28;20215;-87
2021/04/14 09:28:53;;;;;;;0.60;0.60;;;5.30;99.90;;;;;;4975499;28;20317;-89
2021/04/14 09:31:39;;;;;;;0.50;0.50;;;5.50;99.90;;;;;;4973703;28;20214;-87
2021/04/14 09:34:16;;;;;;;0.60;0.60;;;5.70;99.90;;;;;;4973587;28;20214;-89
2021/04/14 09:36:48;;;;;;;0.60;0.60;;;5.80;99.90;;;;;;4975905;28;20266;-89
2021/04/14 09:39:31;;;;;;;0.60;0.60;;;5.90;99.90;;;;;;4978333;28;20203;-88
2021/04/14 09:41:58;;;;;;;0.60;0.60;;;6.20;99.90;;;;;;4976551;28;20230;-89
2021/04/14 09:44:47;;;;;;;0.60;0.60;;;6.20;99.90;;;;;;4972915;28;20238;-87
2021/04/14 09:47:33;;;;;;;0.60;0.60;;;6.30;99.90;;;;;;4968003;28;20265;-85
2021/04/14 09:50:02;;;;;;;0.60;0.60;;;6.70;99.90;;;;;;4972938;28;20214;-86
2021/04/14 09:52:31;;;;;;;0.60;0.60;;;6.70;99.90;;;;;;4974247;28;20254;-92
2021/04/14 09:55:07;;;;;;;0.60;0.60;;;6.80;99.90;;;;;;4977982;28;20210;-87
2021/04/14 09:57:39;;;;;;;0.55;0.55;;;6.70;99.90;;;;;;4974975;28;20258;-85
2021/04/14 10:00:14;;;;;;;0.60;0.60;;;6.30;99.90;;;;;;4972712;28;20214;-88
2021/04/14 10:02:42;;;;;;;0.60;0.60;;;5.80;99.90;;;;;;4973427;28;20235;-88
2021/04/14 10:05:10;;;;;;;0.60;0.60;;;5.70;99.90;;;;;;4972525;28;20756;-88
2021/04/14 10:07:39;;;;;;;0.60;0.60;;;5.70;99.90;;;;;;4972616;28;20258;-88
2021/04/14 10:10:09;;;;;;;0.50;0.50;;;5.80;99.90;;;;;;4972525;28;20215;-86
2021/04/14 10:12:36;;;;;;;0.60;0.60;;;5.60;99.90;;;;;;4976175;28;20291;-88
2021/04/14 10:15:14;;;;;;;0.55;0.55;;;5.70;99.90;;;;;;4978410;28;20215;-89
2021/04/14 10:17:42;;;;;;;0.60;0.60;;;5.80;99.90;;;;;;4988632;28;20206;-89
2021/04/14 10:20:26;;;;;;;0.60;0.60;;;6.00;99.90;;;;;;4996771;28;20209;-89
2021/04/14 10:22:53;;;;;;;0.60;0.60;;;6.20;99.90;;;;;;5001177;28;20228;-89
2021/04/14 10:25:25;;;;;;;0.50;0.50;;;5.60;99.90;;;;;;4993645;28;20218;-89
2021/04/14 10:27:59;;;;;;;0.60;0.60;;;6.30;99.90;;;;;;4991818;28;20715;-89
2021/04/14 10:30:27;;;;;;;0.60;0.60;;;6.00;99.90;;;;;;4991758;28;20305;-88
2021/04/14 10:33:04;;;;;;;0.50;0.50;;;6.60;99.90;;;;;;4982903;28;20211;-88
2021/04/14 10:35:31;;;;;;;0.60;0.60;;;6.70;99.90;;;;;;4971928;28;20194;-89
2021/04/14 10:37:58;;;;;;;0.60;0.60;;;5.60;99.90;;;;;;4971788;28;20266;-89
2021/04/14 10:40:28;;;;;;;0.50;0.50;;;7.00;99.90;;;;;;4972027;28;20237;-88
2021/04/14 10:42:56;;;;;;;0.50;0.50;;;6.80;99.90;;;;;;4971856;28;20257;-90
2021/04/14 10:45:24;;;;;;;0.50;0.50;;;7.30;99.90;;;;;;4972171;28;20203;-89
2021/04/14 10:47:54;;;;;;;0.60;0.60;;;7.00;99.90;;;;;;4970904;28;20227;-89
2021/04/14 10:50:27;;;;;;;0.60;0.60;;;6.70;99.90;;;;;;4971843;28;20242;-89
2021/04/14 10:52:59;;;;;;;0.60;0.60;;;6.30;99.90;;;;;;4972169;28;20226;-88
2021/04/14 10:55:28;;;;;;;0.60;0.60;;;6.70;99.90;;;;;;4971762;28;20199;-89
2021/04/14 10:57:58;;;;;;;0.60;0.60;;;9.50;99.90;;;;;;4971689;28;20203;-89
2021/04/14 11:00:30;;;;;;;0.60;0.60;;;7.50;99.90;;;;;;4972450;28;20213;-89
2021/04/14 11:03:00;;;;;;;0.60;0.60;;;8.00;99.90;;;;;;4971683;28;20682;-88
2021/04/14 11:05:29;;;;;;;0.60;0.60;;;7.50;99.90;;;;;;4971330;28;20211;-89
2021/04/14 11:07:56;;;;;;;0.60;0.60;;;8.90;99.90;;;;;;4969865;28;20233;-89
2021/04/14 11:10:26;;;;;;;0.60;0.60;;;8.30;99.90;;;;;;4972876;28;20847;-89
2021/04/14 11:12:56;;;;;;;0.60;0.60;;;8.20;99.90;;;;;;4976491;28;20211;-88
2021/04/14 11:15:27;;;;;;;0.60;0.60;;;8.30;99.90;;;;;;4970090;28;20210;-84
2021/04/14 11:17:59;;;;;;;0.60;0.60;;;9.90;99.90;;;;;;4975366;28;20219;-85
2021/04/14 11:20:41;;;;;;;0.60;0.60;;;7.40;99.90;;;;;;4972664;28;20214;-85
2021/04/14 11:23:18;;;;;;;0.60;0.60;;;7.20;99.90;;;;;;4977464;28;20233;-86
2021/04/14 11:25:47;;;;;;;0.57;0.57;;;8.10;99.90;;;;;;4972464;28;20202;-87
2021/04/14 11:28:29;;;;;;;0.60;0.60;;;8.50;99.90;;;;;;4971972;28;20310;-88
2021/04/14 11:30:58;;;;;;;0.60;0.60;;;8.20;99.90;;;;;;4972437;28;20242;-88
2021/04/14 11:36:59;;;;;;;0.60;0.60;;;7.60;99.90;;;;;;4967523;28;20242;-88
2021/04/14 11:40:00;;;;;;;0.60;0.60;;;9.20;99.90;;;;;;4893408;29;20658;-88
2021/04/14 11:42:56;;;;;;;0.60;0.60;;;7.90;99.90;;;;;;4883968;29;20236;-88
2021/04/14 11:46:08;;;;;;;0.60;0.60;;;8.30;99.90;;;;;;4942398;28;20211;-88
2021/04/14 11:52:47;;;;;;;0.60;0.60;;;9.00;99.90;;;;;;4905215;29;20339;-88
2021/04/14 11:55:35;;;;;;;0.60;0.60;;;8.20;99.90;;;;;;4861869;29;20292;-88
2021/04/14 11:58:23;;;;;;;0.60;0.60;;;7.70;99.90;;;;;;4893268;29;20221;-89
2021/04/14 12:01:03;;;;;;;0.60;0.60;;;9.00;99.90;;;;;;4905561;28;20207;-88
2021/04/14 12:03:35;;;;;;;0.60;0.60;;;9.00;99.90;;;;;;4952024;28;20259;-89
2021/04/14 12:06:02;;;;;;;0.60;0.60;;;9.40;99.90;;;;;;4951990;28;20250;-88
2021/04/14 12:08:37;;;;;;;0.60;0.60;;;11.40;99.90;;;;;;4954619;28;20599;-89
2021/04/14 12:11:06;;;;;;;0.50;0.50;;;10.50;99.90;;;;;;4955626;28;20350;-88
2021/04/14 12:13:34;;;;;;;0.60;0.60;;;9.40;99.90;;;;;;4955882;28;20242;-88
2021/04/14 12:16:04;;;;;;;0.55;0.55;;;9.70;99.90;;;;;;4955605;28;20247;-88
2021/04/14 12:19:06;;;;;;;0.60;0.60;;;8.50;99.90;;;;;;4957216;28;20677;-89
2021/04/14 12:21:32;;;;;;;0.60;0.60;;;9.00;99.90;;;;;;4953346;28;20214;-89
2021/04/14 12:24:16;;;;;;;;;;;;;;;;;;;;;
2021/04/14 12:26:45;;;;;;;0.60;0.60;;;8.60;99.90;;;;;;4951786;28;20578;-87
2021/04/14 12:29:14;;;;;;;0.60;0.60;;;10.30;99.90;;;;;;4955659;28;20551;-87
2021/04/14 12:31:42;;;;;;;0.60;0.60;;;8.70;99.90;;;;;;4955648;28;20266;-87
2021/04/14 12:34:10;;;;;;;0.60;0.60;;;8.70;99.90;;;;;;4955777;28;20258;-87
2021/04/14 12:36:38;;;;;;;0.50;0.50;;;8.60;99.90;;;;;;4973162;28;20210;-87
2021/04/14 12:39:07;;;;;;;0.60;0.60;;;9.20;99.90;;;;;;4994287;28;20199;-87
2021/04/14 12:41:37;;;;;;;0.60;0.60;;;10.30;99.90;;;;;;4994433;28;20198;-87
2021/04/14 12:44:06;;;;;;;0.60;0.60;;;8.80;99.90;;;;;;4977952;28;20293;-87
2021/04/14 12:46:38;;;;;;;0.60;0.60;;;9.40;99.90;;;;;;4974316;28;20298;-88
2021/04/14 12:49:06;;;;;;;0.60;0.60;;;9.60;99.90;;;;;;4973862;28;20199;-87
2021/04/14 12:51:38;;;;;;;0.60;0.60;;;9.90;99.90;;;;;;4973749;28;20620;-87
2021/04/14 12:54:11;;;;;;;0.60;0.60;;;9.70;99.90;;;;;;4973442;28;20265;-87
2021/04/14 12:56:40;;;;;;;0.60;0.60;;;9.60;99.90;;;;;;4973863;28;20203;-87
2021/04/14 12:59:14;;;;;;;0.60;0.60;;;9.50;99.90;;;;;;4973750;28;20207;-87
2021/04/14 13:01:42;;;;;;;0.60;0.60;;;12.10;99.90;;;;;;4973735;28;20237;-87
2021/04/14 13:04:15;;;;;;;0.60;0.60;;;9.40;99.90;;;;;;4973365;28;20261;-86
2021/04/14 13:06:45;;;;;;;0.50;0.50;;;8.50;99.90;;;;;;4973447;28;20198;-87
2021/04/14 13:09:12;;;;;;;0.60;0.60;;;9.70;99.90;;;;;;4973736;28;20242;-87
2021/04/14 13:11:42;;;;;;;0.60;0.60;;;9.70;99.90;;;;;;4973735;28;20218;-87
2021/04/14 13:14:08;;;;;;;0.60;0.60;;;11.50;99.90;;;;;;4973221;28;20215;-87
2021/04/14 13:16:41;;;;;;;0.60;0.60;;;12.90;99.90;;;;;;4973833;28;20214;-87
2021/04/14 13:19:08;;;;;;;0.60;0.60;;;11.10;99.90;;;;;;4989305;28;20760;-87
2021/04/14 13:21:42;;;;;;;0.60;0.60;;;11.40;99.90;;;;;;4993098;28;20217;-87
2021/04/14 13:24:17;;;;;;;0.60;0.60;;;11.70;99.90;;;;;;4993329;28;20210;-88
2021/04/14 13:26:47;;;;;;;0.60;0.60;;;11.40;99.90;;;;;;4992726;28;20206;-87
2021/04/14 13:29:22;;;;;;;0.60;0.60;;;10.60;99.90;;;;;;4992808;28;20665;-85
2021/04/14 13:31:53;;;;;;;0.60;0.60;;;9.80;99.90;;;;;;4991040;28;20244;-86
2021/04/14 13:34:27;;;;;;;0.60;0.60;;;9.20;99.90;;;;;;4993893;28;20241;-85
2021/04/14 13:37:05;;;;;;;0.60;0.60;;;9.30;99.90;;;;;;4993648;28;20205;-87
2021/04/14 13:39:37;;;;;;;0.60;0.60;;;9.00;99.90;;;;;;4992932;28;20499;-87
2021/04/14 13:42:11;;;;;;;0.60;0.60;;;8.70;99.90;;;;;;4993043;28;20214;-87
2021/04/14 13:44:52;;;;;;;0.60;0.60;;;8.50;99.90;;;;;;4994077;28;20197;-88
2021/04/14 13:47:23;;;;;;;0.60;0.60;;;7.90;99.90;;;;;;4994480;28;20237;-89
2021/04/14 13:50:02;;;;;;;0.60;0.60;;;8.70;99.90;;;;;;4994160;28;20202;-90
2021/04/14 13:52:30;;;;;;;0.60;0.60;;;8.40;99.90;;;;;;4992563;28;20226;-84
2021/04/14 13:55:00;;;;;;;0.60;0.60;;;8.50;99.90;;;;;;4992372;28;20210;-85
2021/04/14 13:57:30;;;;;;;0.60;0.60;;;8.40;99.90;;;;;;4992390;28;20206;-86
2021/04/14 13:59:59;;;;;;;0.60;0.60;;;8.30;99.90;;;;;;4991950;28;20713;-86
2021/04/14 14:02:31;;;;;;;0.60;0.60;;;8.30;99.90;;;;;;4992128;28;20230;-85
2021/04/14 14:05:00;;;;;;;0.60;0.60;;;8.30;99.90;;;;;;4991765;28;20241;-85
2021/04/14 14:07:30;;;;;;;0.60;0.60;;;8.40;99.90;;;;;;4991943;28;20226;-86
2021/04/14 14:10:00;;;;;;;0.60;0.60;;;8.40;99.90;;;;;;4991673;28;20198;-83
2021/04/14 14:12:30;;;;;;;0.60;0.60;;;8.40;99.90;;;;;;4992530;28;20217;-83
2021/04/14 14:14:59;;;;;;;0.60;0.60;;;8.30;99.90;;;;;;4973606;28;20249;-84
2021/04/14 14:17:28;;;;;;;0.60;0.60;;;8.30;99.90;;;;;;4968686;28;20195;-85
2021/04/14 14:20:00;;;;;;;0.60;0.60;;;8.40;99.90;;;;;;4970993;28;20203;-84
2021/04/14 14:22:27;;;;;;;0.60;0.60;;;8.30;99.90;;;;;;4972143;28;20214;-83
2021/04/14 14:24:54;;;;;;;0.52;0.52;;;8.30;99.90;;;;;;4971799;28;20213;-83
2021/04/14 14:27:21;;;;;;;0.60;0.60;;;8.40;99.90;;;;;;4971650;28;20234;-84
2021/04/14 14:29:47;;;;;;;0.60;0.60;;;8.40;99.90;;;;;;4971306;28;20199;-84
2021/04/14 14:32:16;;;;;;;0.60;0.60;;;8.40;99.90;;;;;;4968869;28;20210;-84
2021/04/14 14:34:44;;;;;;;0.60;0.60;;;8.50;99.90;;;;;;4970392;28;20249;-82